Prachuap Khirikhan, Thailand
Current Conditions -  °F | °C
As of 11:30 AM on Friday 21 Nov 2014 (Local Time) from VTBU Reporting Station
Haze Haze  
Wind Chill: 90°   Ceiling: 30000
Heat Index: 92°   Visibility: 3mi
Dew Point: 66°   Wind: 5mph
Humidity: 46%   Direction: 30°NNE
Pressure: 29.85"   Gusts: NA
Location:  11.83°N, 99.83°E
Report Text: VTBU 210430Z 03004KT 5000 HZ FEW025 BKN300 32/19 Q1011 A2987
Loading
Personal Weather Stations






























Interactive Weather Map New forecast layout! Learn more

10-Day Weather Forecast

Advertisements
Track Severe Weather on mobile